sensor_id;sensor_type;location;lat;lon;timestamp;temperature;humidity
25154;DHT22;47555;51.038;6.280;2022-12-24T00:01:08;10.50;99.90
25154;DHT22;47555;51.038;6.280;2022-12-24T00:03:35;10.40;99.90
25154;DHT22;47555;51.038;6.280;2022-12-24T00:06:05;10.50;99.90
25154;DHT22;47555;51.038;6.280;2022-12-24T00:08:31;10.50;99.90
25154;DHT22;47555;51.038;6.280;2022-12-24T00:10:56;10.40;99.90
25154;DHT22;47555;51.038;6.280;2022-12-24T00:13:22;10.40;99.90
25154;DHT22;47555;51.038;6.280;2022-12-24T00:15:48;10.50;99.90
25154;DHT22;47555;51.038;6.280;2022-12-24T00:18:14;10.50;99.90
25154;DHT22;47555;51.038;6.280;2022-12-24T00:20:39;10.40;99.90
25154;DHT22;47555;51.038;6.280;2022-12-24T00:23:05;10.40;99.90
25154;DHT22;47555;51.038;6.280;2022-12-24T00:25:31;10.40;99.90
25154;DHT22;47555;51.038;6.280;2022-12-24T00:27:56;10.40;99.90
25154;DHT22;47555;51.038;6.280;2022-12-24T00:30:22;10.40;99.90
25154;DHT22;47555;51.038;6.280;2022-12-24T00:32:47;10.40;99.90
25154;DHT22;47555;51.038;6.280;2022-12-24T00:35:13;10.30;99.90
25154;DHT22;47555;51.038;6.280;2022-12-24T00:37:38;10.30;99.90
25154;DHT22;47555;51.038;6.280;2022-12-24T00:40:04;10.30;99.90
25154;DHT22;47555;51.038;6.280;2022-12-24T00:42:30;10.30;99.90
25154;DHT22;47555;51.038;6.280;2022-12-24T00:44:55;10.20;99.90
25154;DHT22;47555;51.038;6.280;2022-12-24T00:47:21;10.20;99.90
25154;DHT22;47555;51.038;6.280;2022-12-24T00:49:46;10.20;99.90
25154;DHT22;47555;51.038;6.280;2022-12-24T00:52:12;10.20;99.90
25154;DHT22;47555;51.038;6.280;2022-12-24T00:54:37;10.10;99.90
25154;DHT22;47555;51.038;6.280;2022-12-24T00:57:03;10.10;99.90
25154;DHT22;47555;51.038;6.280;2022-12-24T00:59:28;10.10;99.90
25154;DHT22;47555;51.038;6.280;2022-12-24T01:01:54;10.10;99.90
25154;DHT22;47555;51.038;6.280;2022-12-24T01:04:19;10.10;99.90
25154;DHT22;47555;51.038;6.280;2022-12-24T01:07:03;10.10;99.90
25154;DHT22;47555;51.038;6.280;2022-12-24T01:09:29;10.10;99.90
25154;DHT22;47555;51.038;6.280;2022-12-24T01:11:54;10.10;99.90
25154;DHT22;47555;51.038;6.280;2022-12-24T01:14:20;10.10;99.90
25154;DHT22;47555;51.038;6.280;2022-12-24T01:16:45;10.10;99.90
25154;DHT22;47555;51.038;6.280;2022-12-24T01:19:11;10.10;99.90
25154;DHT22;47555;51.038;6.280;2022-12-24T01:21:37;10.10;99.90
25154;DHT22;47555;51.038;6.280;2022-12-24T01:24:02;10.10;99.90
25154;DHT22;47555;51.038;6.280;2022-12-24T01:26:28;10.10;99.90
25154;DHT22;47555;51.038;6.280;2022-12-24T01:28:53;10.10;99.90
25154;DHT22;47555;51.038;6.280;2022-12-24T01:31:19;10.00;99.90
25154;DHT22;47555;51.038;6.280;2022-12-24T01:33:48;10.00;99.90
25154;DHT22;47555;51.038;6.280;2022-12-24T01:36:14;10.10;99.90
25154;DHT22;47555;51.038;6.280;2022-12-24T01:38:40;10.10;99.90
25154;DHT22;47555;51.038;6.280;2022-12-24T01:41:06;10.10;99.90
25154;DHT22;47555;51.038;6.280;2022-12-24T01:43:50;10.10;99.90
25154;DHT22;47555;51.038;6.280;2022-12-24T01:46:19;10.10;99.90
25154;DHT22;47555;51.038;6.280;2022-12-24T01:48:48;10.10;99.90
25154;DHT22;47555;51.038;6.280;2022-12-24T01:51:36;10.10;99.90
25154;DHT22;47555;51.038;6.280;2022-12-24T01:54:09;10.10;99.90
25154;DHT22;47555;51.038;6.280;2022-12-24T01:56:39;10.10;99.90
25154;DHT22;47555;51.038;6.280;2022-12-24T01:59:09;10.10;99.90
25154;DHT22;47555;51.038;6.280;2022-12-24T02:01:35;10.10;99.90
25154;DHT22;47555;51.038;6.280;2022-12-24T02:04:11;10.10;99.90
25154;DHT22;47555;51.038;6.280;2022-12-24T02:06:40;10.10;99.90
25154;DHT22;47555;51.038;6.280;2022-12-24T02:09:05;10.10;99.90
25154;DHT22;47555;51.038;6.280;2022-12-24T02:11:33;10.10;99.90
25154;DHT22;47555;51.038;6.280;2022-12-24T02:14:01;10.00;99.90
25154;DHT22;47555;51.038;6.280;2022-12-24T02:28:35;10.20;99.90
25154;DHT22;47555;51.038;6.280;2022-12-24T02:31:26;10.20;99.90
25154;DHT22;47555;51.038;6.280;2022-12-24T02:34:18;10.30;99.90
25154;DHT22;47555;51.038;6.280;2022-12-24T02:36:57;10.30;99.90
25154;DHT22;47555;51.038;6.280;2022-12-24T02:39:32;10.30;99.90
25154;DHT22;47555;51.038;6.280;2022-12-24T02:42:02;10.20;99.90
25154;DHT22;47555;51.038;6.280;2022-12-24T02:44:53;10.20;99.90
25154;DHT22;47555;51.038;6.280;2022-12-24T02:47:22;10.20;99.90
25154;DHT22;47555;51.038;6.280;2022-12-24T02:49:49;10.20;99.90
25154;DHT22;47555;51.038;6.280;2022-12-24T02:52:47;10.20;99.90
25154;DHT22;47555;51.038;6.280;2022-12-24T03:09:26;10.00;99.90
25154;DHT22;47555;51.038;6.280;2022-12-24T03:12:07;10.00;99.90
25154;DHT22;47555;51.038;6.280;2022-12-24T03:14:35;10.00;99.90
25154;DHT22;47555;51.038;6.280;2022-12-24T03:17:01;10.00;99.90
25154;DHT22;47555;51.038;6.280;2022-12-24T03:19:28;10.00;99.90
25154;DHT22;47555;51.038;6.280;2022-12-24T03:21:57;10.00;99.90
25154;DHT22;47555;51.038;6.280;2022-12-24T03:24:23;10.00;99.90
25154;DHT22;47555;51.038;6.280;2022-12-24T03:26:49;9.90;99.90
25154;DHT22;47555;51.038;6.280;2022-12-24T03:29:16;9.90;99.90
25154;DHT22;47555;51.038;6.280;2022-12-24T03:31:44;9.90;99.90
25154;DHT22;47555;51.038;6.280;2022-12-24T03:34:10;9.80;99.90
25154;DHT22;47555;51.038;6.280;2022-12-24T03:36:36;9.80;99.90
25154;DHT22;47555;51.038;6.280;2022-12-24T03:39:02;9.80;99.90
25154;DHT22;47555;51.038;6.280;2022-12-24T03:41:28;9.70;99.90
25154;DHT22;47555;51.038;6.280;2022-12-24T03:43:53;9.70;99.90
25154;DHT22;47555;51.038;6.280;2022-12-24T03:46:19;9.70;99.90
25154;DHT22;47555;51.038;6.280;2022-12-24T03:48:44;9.70;99.90
25154;DHT22;47555;51.038;6.280;2022-12-24T03:51:17;9.70;99.90
25154;DHT22;47555;51.038;6.280;2022-12-24T03:53:43;9.70;99.90
25154;DHT22;47555;51.038;6.280;2022-12-24T03:56:08;9.70;99.90
25154;DHT22;47555;51.038;6.280;2022-12-24T03:58:34;9.70;99.90
25154;DHT22;47555;51.038;6.280;2022-12-24T04:00:59;9.80;99.90
25154;DHT22;47555;51.038;6.280;2022-12-24T04:03:25;9.80;99.90
25154;DHT22;47555;51.038;6.280;2022-12-24T04:06:08;9.70;99.90
25154;DHT22;47555;51.038;6.280;2022-12-24T04:08:34;9.70;99.90
25154;DHT22;47555;51.038;6.280;2022-12-24T04:10:59;9.70;99.90
25154;DHT22;47555;51.038;6.280;2022-12-24T04:13:25;9.70;99.90
25154;DHT22;47555;51.038;6.280;2022-12-24T04:16:09;9.70;99.90
25154;DHT22;47555;51.038;6.280;2022-12-24T04:18:36;9.70;99.90
25154;DHT22;47555;51.038;6.280;2022-12-24T04:21:02;9.60;99.90
25154;DHT22;47555;51.038;6.280;2022-12-24T04:23:30;9.60;99.90
25154;DHT22;47555;51.038;6.280;2022-12-24T04:25:58;9.60;99.90
25154;DHT22;47555;51.038;6.280;2022-12-24T04:28:24;9.60;99.90
25154;DHT22;47555;51.038;6.280;2022-12-24T04:30:49;9.50;99.90
25154;DHT22;47555;51.038;6.280;2022-12-24T04:33:15;9.50;99.90
25154;DHT22;47555;51.038;6.280;2022-12-24T04:35:41;9.50;99.90
25154;DHT22;47555;51.038;6.280;2022-12-24T04:38:08;9.50;99.90
25154;DHT22;47555;51.038;6.280;2022-12-24T04:40:34;9.50;99.90
25154;DHT22;47555;51.038;6.280;2022-12-24T04:43:00;9.50;99.90
25154;DHT22;47555;51.038;6.280;2022-12-24T04:45:25;9.50;99.90
25154;DHT22;47555;51.038;6.280;2022-12-24T04:47:51;9.50;99.90
25154;DHT22;47555;51.038;6.280;2022-12-24T04:50:16;9.50;99.90
25154;DHT22;47555;51.038;6.280;2022-12-24T04:52:42;9.50;99.90
25154;DHT22;47555;51.038;6.280;2022-12-24T04:55:08;9.50;99.90
25154;DHT22;47555;51.038;6.280;2022-12-24T04:57:34;9.50;99.90
25154;DHT22;47555;51.038;6.280;2022-12-24T05:00:00;9.50;99.90
25154;DHT22;47555;51.038;6.280;2022-12-24T05:02:26;9.40;99.90
25154;DHT22;47555;51.038;6.280;2022-12-24T05:04:51;9.40;99.90
25154;DHT22;47555;51.038;6.280;2022-12-24T05:07:17;9.40;99.90
25154;DHT22;47555;51.038;6.280;2022-12-24T05:09:43;9.40;99.90
25154;DHT22;47555;51.038;6.280;2022-12-24T05:12:08;9.40;99.90
25154;DHT22;47555;51.038;6.280;2022-12-24T05:14:34;9.40;99.90
25154;DHT22;47555;51.038;6.280;2022-12-24T05:16:59;9.40;99.90
25154;DHT22;47555;51.038;6.280;2022-12-24T05:19:25;9.50;99.90
25154;DHT22;47555;51.038;6.280;2022-12-24T05:21:50;9.50;99.90
25154;DHT22;47555;51.038;6.280;2022-12-24T05:24:36;9.50;99.90
25154;DHT22;47555;51.038;6.280;2022-12-24T05:27:20;9.50;99.90
25154;DHT22;47555;51.038;6.280;2022-12-24T05:29:45;9.60;99.90
25154;DHT22;47555;51.038;6.280;2022-12-24T05:32:11;9.60;99.90
25154;DHT22;47555;51.038;6.280;2022-12-24T05:34:37;9.70;99.90
25154;DHT22;47555;51.038;6.280;2022-12-24T05:37:02;9.70;99.90
25154;DHT22;47555;51.038;6.280;2022-12-24T05:39:28;9.80;99.90
25154;DHT22;47555;51.038;6.280;2022-12-24T05:41:53;9.80;99.90
25154;DHT22;47555;51.038;6.280;2022-12-24T05:44:19;9.80;99.90
25154;DHT22;47555;51.038;6.280;2022-12-24T05:46:44;9.90;99.90
25154;DHT22;47555;51.038;6.280;2022-12-24T05:49:10;9.90;99.90
25154;DHT22;47555;51.038;6.280;2022-12-24T05:51:36;9.90;99.90
25154;DHT22;47555;51.038;6.280;2022-12-24T05:54:01;10.00;99.90
25154;DHT22;47555;51.038;6.280;2022-12-24T05:56:27;10.00;99.90
25154;DHT22;47555;51.038;6.280;2022-12-24T05:58:53;10.00;99.90
25154;DHT22;47555;51.038;6.280;2022-12-24T06:01:19;10.00;99.90
25154;DHT22;47555;51.038;6.280;2022-12-24T06:03:46;10.00;99.90
25154;DHT22;47555;51.038;6.280;2022-12-24T06:06:15;10.00;99.90
25154;DHT22;47555;51.038;6.280;2022-12-24T06:08:45;10.00;99.90
25154;DHT22;47555;51.038;6.280;2022-12-24T06:11:13;10.00;99.90
25154;DHT22;47555;51.038;6.280;2022-12-24T06:13:40;10.10;99.90
25154;DHT22;47555;51.038;6.280;2022-12-24T06:16:08;10.10;99.90
25154;DHT22;47555;51.038;6.280;2022-12-24T06:18:34;10.10;99.90
25154;DHT22;47555;51.038;6.280;2022-12-24T06:21:01;10.00;99.90
25154;DHT22;47555;51.038;6.280;2022-12-24T06:23:29;10.10;99.90
25154;DHT22;47555;51.038;6.280;2022-12-24T06:25:56;10.00;99.90
25154;DHT22;47555;51.038;6.280;2022-12-24T06:28:22;10.00;99.90
25154;DHT22;47555;51.038;6.280;2022-12-24T06:30:49;10.00;99.90
25154;DHT22;47555;51.038;6.280;2022-12-24T06:33:16;10.00;99.90
25154;DHT22;47555;51.038;6.280;2022-12-24T06:35:43;10.00;99.90
25154;DHT22;47555;51.038;6.280;2022-12-24T06:38:09;10.00;99.90
25154;DHT22;47555;51.038;6.280;2022-12-24T06:40:37;10.00;99.90
25154;DHT22;47555;51.038;6.280;2022-12-24T06:43:02;10.00;99.90
25154;DHT22;47555;51.038;6.280;2022-12-24T06:45:28;10.00;99.90
25154;DHT22;47555;51.038;6.280;2022-12-24T06:47:53;10.00;99.90
25154;DHT22;47555;51.038;6.280;2022-12-24T06:50:19;10.00;99.90
25154;DHT22;47555;51.038;6.280;2022-12-24T06:52:44;10.00;99.90
25154;DHT22;47555;51.038;6.280;2022-12-24T06:55:10;10.00;99.90
25154;DHT22;47555;51.038;6.280;2022-12-24T06:57:35;10.00;99.90
25154;DHT22;47555;51.038;6.280;2022-12-24T07:00:01;10.00;99.90
25154;DHT22;47555;51.038;6.280;2022-12-24T07:02:26;10.00;99.90
25154;DHT22;47555;51.038;6.280;2022-12-24T07:04:52;9.90;99.90
25154;DHT22;47555;51.038;6.280;2022-12-24T07:07:18;9.90;99.90
25154;DHT22;47555;51.038;6.280;2022-12-24T07:09:43;9.90;99.90
25154;DHT22;47555;51.038;6.280;2022-12-24T07:12:09;9.90;99.90
25154;DHT22;47555;51.038;6.280;2022-12-24T07:14:34;9.90;99.90
25154;DHT22;47555;51.038;6.280;2022-12-24T07:17:00;9.80;99.90
25154;DHT22;47555;51.038;6.280;2022-12-24T07:19:25;9.80;99.90
25154;DHT22;47555;51.038;6.280;2022-12-24T07:21:50;9.70;99.90
25154;DHT22;47555;51.038;6.280;2022-12-24T07:24:16;9.70;99.90
25154;DHT22;47555;51.038;6.280;2022-12-24T07:26:42;9.70;99.90
25154;DHT22;47555;51.038;6.280;2022-12-24T07:29:07;9.70;99.90
25154;DHT22;47555;51.038;6.280;2022-12-24T07:31:33;9.70;99.90
25154;DHT22;47555;51.038;6.280;2022-12-24T07:33:58;9.80;99.90
25154;DHT22;47555;51.038;6.280;2022-12-24T07:36:24;9.80;99.90
25154;DHT22;47555;51.038;6.280;2022-12-24T07:38:49;9.80;99.90
25154;DHT22;47555;51.038;6.280;2022-12-24T07:41:15;9.80;99.90
25154;DHT22;47555;51.038;6.280;2022-12-24T07:43:41;9.80;99.90
25154;DHT22;47555;51.038;6.280;2022-12-24T07:46:07;9.90;99.90
25154;DHT22;47555;51.038;6.280;2022-12-24T07:48:32;9.90;99.90
25154;DHT22;47555;51.038;6.280;2022-12-24T07:50:58;9.90;99.90
25154;DHT22;47555;51.038;6.280;2022-12-24T07:53:25;10.00;99.90
25154;DHT22;47555;51.038;6.280;2022-12-24T07:55:51;10.00;99.90
25154;DHT22;47555;51.038;6.280;2022-12-24T07:58:17;10.10;99.90
25154;DHT22;47555;51.038;6.280;2022-12-24T08:00:44;10.10;99.90
25154;DHT22;47555;51.038;6.280;2022-12-24T08:03:18;10.10;99.90
25154;DHT22;47555;51.038;6.280;2022-12-24T08:05:44;10.10;99.90
25154;DHT22;47555;51.038;6.280;2022-12-24T08:08:10;10.10;99.90
25154;DHT22;47555;51.038;6.280;2022-12-24T08:10:38;10.20;99.90
25154;DHT22;47555;51.038;6.280;2022-12-24T08:13:04;10.20;99.90
25154;DHT22;47555;51.038;6.280;2022-12-24T08:15:30;10.30;99.90
25154;DHT22;47555;51.038;6.280;2022-12-24T08:17:55;10.30;99.90
25154;DHT22;47555;51.038;6.280;2022-12-24T08:20:21;10.30;99.90
25154;DHT22;47555;51.038;6.280;2022-12-24T08:22:46;10.30;99.90
25154;DHT22;47555;51.038;6.280;2022-12-24T08:25:12;10.30;99.90
25154;DHT22;47555;51.038;6.280;2022-12-24T08:27:37;10.30;99.90
25154;DHT22;47555;51.038;6.280;2022-12-24T08:30:03;10.30;99.90
25154;DHT22;47555;51.038;6.280;2022-12-24T08:32:29;10.30;99.90
25154;DHT22;47555;51.038;6.280;2022-12-24T08:34:55;10.30;99.90
25154;DHT22;47555;51.038;6.280;2022-12-24T08:37:20;10.30;99.90
25154;DHT22;47555;51.038;6.280;2022-12-24T08:39:46;10.30;99.90
25154;DHT22;47555;51.038;6.280;2022-12-24T08:42:11;10.30;99.90
25154;DHT22;47555;51.038;6.280;2022-12-24T08:44:37;10.30;99.90
25154;DHT22;47555;51.038;6.280;2022-12-24T08:47:02;10.30;99.90
25154;DHT22;47555;51.038;6.280;2022-12-24T08:49:28;10.40;99.90
25154;DHT22;47555;51.038;6.280;2022-12-24T08:51:53;10.40;99.90
25154;DHT22;47555;51.038;6.280;2022-12-24T08:54:19;10.40;99.90
25154;DHT22;47555;51.038;6.280;2022-12-24T08:56:44;10.40;99.90
25154;DHT22;47555;51.038;6.280;2022-12-24T08:59:10;10.40;99.90
25154;DHT22;47555;51.038;6.280;2022-12-24T09:01:36;10.30;99.90
25154;DHT22;47555;51.038;6.280;2022-12-24T09:04:03;10.30;99.90
25154;DHT22;47555;51.038;6.280;2022-12-24T09:06:28;10.30;99.90
25154;DHT22;47555;51.038;6.280;2022-12-24T09:08:54;10.30;99.90
25154;DHT22;47555;51.038;6.280;2022-12-24T09:11:20;10.30;99.90
25154;DHT22;47555;51.038;6.280;2022-12-24T09:13:46;10.30;99.90
25154;DHT22;47555;51.038;6.280;2022-12-24T09:16:12;10.30;99.90
25154;DHT22;47555;51.038;6.280;2022-12-24T09:18:38;10.30;99.90
25154;DHT22;47555;51.038;6.280;2022-12-24T09:21:14;10.40;99.90
25154;DHT22;47555;51.038;6.280;2022-12-24T09:23:41;10.40;99.90
25154;DHT22;47555;51.038;6.280;2022-12-24T09:26:19;10.40;99.90
25154;DHT22;47555;51.038;6.280;2022-12-24T09:28:44;10.40;99.90
25154;DHT22;47555;51.038;6.280;2022-12-24T09:31:11;10.40;99.90
25154;DHT22;47555;51.038;6.280;2022-12-24T09:33:38;10.40;99.90
25154;DHT22;47555;51.038;6.280;2022-12-24T09:36:04;10.40;99.90
25154;DHT22;47555;51.038;6.280;2022-12-24T09:38:31;10.50;99.90
25154;DHT22;47555;51.038;6.280;2022-12-24T09:40:58;10.40;99.90
25154;DHT22;47555;51.038;6.280;2022-12-24T09:43:30;10.50;99.90
25154;DHT22;47555;51.038;6.280;2022-12-24T09:46:10;10.50;99.90
25154;DHT22;47555;51.038;6.280;2022-12-24T09:48:42;10.50;99.90
25154;DHT22;47555;51.038;6.280;2022-12-24T09:51:19;10.50;99.90
25154;DHT22;47555;51.038;6.280;2022-12-24T09:54:21;10.60;99.90
25154;DHT22;47555;51.038;6.280;2022-12-24T09:56:48;10.70;99.90
25154;DHT22;47555;51.038;6.280;2022-12-24T09:59:22;10.70;99.90
25154;DHT22;47555;51.038;6.280;2022-12-24T10:01:50;10.70;99.90
25154;DHT22;47555;51.038;6.280;2022-12-24T10:04:19;10.70;99.90
25154;DHT22;47555;51.038;6.280;2022-12-24T10:07:05;10.70;99.90
25154;DHT22;47555;51.038;6.280;2022-12-24T10:15:19;10.80;99.90
25154;DHT22;47555;51.038;6.280;2022-12-24T10:21:13;10.90;99.90
25154;DHT22;47555;51.038;6.280;2022-12-24T10:23:49;11.00;99.90
25154;DHT22;47555;51.038;6.280;2022-12-24T10:26:26;11.00;99.90
25154;DHT22;47555;51.038;6.280;2022-12-24T10:28:57;11.00;99.90
25154;DHT22;47555;51.038;6.280;2022-12-24T10:31:34;11.10;99.90
25154;DHT22;47555;51.038;6.280;2022-12-24T10:34:11;11.10;99.90
25154;DHT22;47555;51.038;6.280;2022-12-24T10:36:38;11.10;99.90
25154;DHT22;47555;51.038;6.280;2022-12-24T10:39:03;11.10;99.90
25154;DHT22;47555;51.038;6.280;2022-12-24T10:41:29;11.10;99.90
25154;DHT22;47555;51.038;6.280;2022-12-24T10:43:57;11.10;99.90
25154;DHT22;47555;51.038;6.280;2022-12-24T10:46:32;11.10;99.90
25154;DHT22;47555;51.038;6.280;2022-12-24T10:49:02;11.10;99.90
25154;DHT22;47555;51.038;6.280;2022-12-24T10:51:49;11.10;99.90
25154;DHT22;47555;51.038;6.280;2022-12-24T10:54:20;11.10;99.90
25154;DHT22;47555;51.038;6.280;2022-12-24T10:56:48;11.10;99.90
25154;DHT22;47555;51.038;6.280;2022-12-24T11:02:36;11.20;99.90
25154;DHT22;47555;51.038;6.280;2022-12-24T11:05:30;11.20;99.90
25154;DHT22;47555;51.038;6.280;2022-12-24T11:08:03;11.30;99.90
25154;DHT22;47555;51.038;6.280;2022-12-24T11:10:30;11.40;99.90
25154;DHT22;47555;51.038;6.280;2022-12-24T11:12:57;11.40;99.90
25154;DHT22;47555;51.038;6.280;2022-12-24T11:15:28;11.40;99.90
25154;DHT22;47555;51.038;6.280;2022-12-24T11:17:58;11.30;99.90
25154;DHT22;47555;51.038;6.280;2022-12-24T11:20:28;11.30;99.90
25154;DHT22;47555;51.038;6.280;2022-12-24T11:22:54;11.30;99.90
25154;DHT22;47555;51.038;6.280;2022-12-24T11:25:29;11.30;99.90
25154;DHT22;47555;51.038;6.280;2022-12-24T11:28:30;11.30;99.90
25154;DHT22;47555;51.038;6.280;2022-12-24T11:33:27;11.40;99.90
25154;DHT22;47555;51.038;6.280;2022-12-24T11:35:56;11.40;99.90
25154;DHT22;47555;51.038;6.280;2022-12-24T11:38:26;11.50;99.90
25154;DHT22;47555;51.038;6.280;2022-12-24T11:41:07;11.50;99.90
25154;DHT22;47555;51.038;6.280;2022-12-24T11:43:45;11.60;99.90
25154;DHT22;47555;51.038;6.280;2022-12-24T11:49:14;11.60;99.90
25154;DHT22;47555;51.038;6.280;2022-12-24T11:51:57;11.60;99.90
25154;DHT22;47555;51.038;6.280;2022-12-24T11:54:29;11.60;99.90
25154;DHT22;47555;51.038;6.280;2022-12-24T11:56:57;11.60;99.90
25154;DHT22;47555;51.038;6.280;2022-12-24T11:59:41;11.60;99.90
25154;DHT22;47555;51.038;6.280;2022-12-24T12:02:28;11.60;99.90
25154;DHT22;47555;51.038;6.280;2022-12-24T12:05:02;11.60;99.90
25154;DHT22;47555;51.038;6.280;2022-12-24T12:07:31;11.70;99.90
25154;DHT22;47555;51.038;6.280;2022-12-24T12:10:18;11.80;99.90
25154;DHT22;47555;51.038;6.280;2022-12-24T12:13:04;12.00;99.90
25154;DHT22;47555;51.038;6.280;2022-12-24T12:15:40;12.20;99.90
25154;DHT22;47555;51.038;6.280;2022-12-24T12:18:31;12.30;99.90
25154;DHT22;47555;51.038;6.280;2022-12-24T12:21:05;12.40;98.40
25154;DHT22;47555;51.038;6.280;2022-12-24T12:23:35;12.30;97.70
25154;DHT22;47555;51.038;6.280;2022-12-24T12:26:32;12.30;98.10
25154;DHT22;47555;51.038;6.280;2022-12-24T12:29:23;12.30;99.90
25154;DHT22;47555;51.038;6.280;2022-12-24T12:31:58;12.30;99.60
25154;DHT22;47555;51.038;6.280;2022-12-24T12:34:38;12.50;99.40
25154;DHT22;47555;51.038;6.280;2022-12-24T12:39:36;12.60;98.10
25154;DHT22;47555;51.038;6.280;2022-12-24T12:42:15;12.50;97.60
25154;DHT22;47555;51.038;6.280;2022-12-24T12:47:53;12.40;98.10
25154;DHT22;47555;51.038;6.280;2022-12-24T12:58:44;12.60;97.60
25154;DHT22;47555;51.038;6.280;2022-12-24T13:06:30;12.90;99.00
25154;DHT22;47555;51.038;6.280;2022-12-24T13:12:12;13.10;96.10
25154;DHT22;47555;51.038;6.280;2022-12-24T13:22:38;13.10;94.00
25154;DHT22;47555;51.038;6.280;2022-12-24T13:25:04;13.00;93.50
25154;DHT22;47555;51.038;6.280;2022-12-24T13:27:32;12.90;94.10
25154;DHT22;47555;51.038;6.280;2022-12-24T13:30:08;12.80;94.30
25154;DHT22;47555;51.038;6.280;2022-12-24T13:32:52;12.80;95.20
25154;DHT22;47555;51.038;6.280;2022-12-24T13:37:45;12.90;96.40
25154;DHT22;47555;51.038;6.280;2022-12-24T13:53:32;13.00;93.90
25154;DHT22;47555;51.038;6.280;2022-12-24T13:56:06;12.90;94.90
25154;DHT22;47555;51.038;6.280;2022-12-24T13:58:35;12.80;94.70
25154;DHT22;47555;51.038;6.280;2022-12-24T14:01:04;12.80;94.50
25154;DHT22;47555;51.038;6.280;2022-12-24T14:03:57;12.70;95.00
25154;DHT22;47555;51.038;6.280;2022-12-24T14:06:31;12.70;95.00
25154;DHT22;47555;51.038;6.280;2022-12-24T14:09:07;12.60;95.80
25154;DHT22;47555;51.038;6.280;2022-12-24T14:14:35;12.50;95.20
25154;DHT22;47555;51.038;6.280;2022-12-24T14:17:23;12.40;97.00
25154;DHT22;47555;51.038;6.280;2022-12-24T14:19:59;12.30;96.80
25154;DHT22;47555;51.038;6.280;2022-12-24T14:22:36;12.20;97.40
25154;DHT22;47555;51.038;6.280;2022-12-24T14:25:16;12.10;98.50
25154;DHT22;47555;51.038;6.280;2022-12-24T14:27:50;12.00;98.80
25154;DHT22;47555;51.038;6.280;2022-12-24T14:30:26;11.90;99.30
25154;DHT22;47555;51.038;6.280;2022-12-24T14:32:52;11.80;99.60
25154;DHT22;47555;51.038;6.280;2022-12-24T14:35:23;11.70;99.90
25154;DHT22;47555;51.038;6.280;2022-12-24T14:37:57;11.60;99.90
25154;DHT22;47555;51.038;6.280;2022-12-24T14:40:32;11.50;99.90
25154;DHT22;47555;51.038;6.280;2022-12-24T14:46:11;11.40;99.90
25154;DHT22;47555;51.038;6.280;2022-12-24T14:48:47;11.30;99.90
25154;DHT22;47555;51.038;6.280;2022-12-24T14:51:35;11.20;99.90
25154;DHT22;47555;51.038;6.280;2022-12-24T15:05:26;10.80;99.90
25154;DHT22;47555;51.038;6.280;2022-12-24T15:10:35;10.70;99.90
25154;DHT22;47555;51.038;6.280;2022-12-24T15:13:23;10.70;99.90
25154;DHT22;47555;51.038;6.280;2022-12-24T15:15:48;10.60;99.90
25154;DHT22;47555;51.038;6.280;2022-12-24T15:18:17;10.60;99.90
25154;DHT22;47555;51.038;6.280;2022-12-24T15:20:46;10.60;99.90
25154;DHT22;47555;51.038;6.280;2022-12-24T15:23:27;10.50;99.90
25154;DHT22;47555;51.038;6.280;2022-12-24T15:28:39;10.40;99.90
25154;DHT22;47555;51.038;6.280;2022-12-24T15:31:15;10.40;99.90
25154;DHT22;47555;51.038;6.280;2022-12-24T15:33:45;10.30;99.90
25154;DHT22;47555;51.038;6.280;2022-12-24T15:36:12;10.30;99.90
25154;DHT22;47555;51.038;6.280;2022-12-24T15:38:43;10.30;99.90
25154;DHT22;47555;51.038;6.280;2022-12-24T15:41:18;10.30;99.90
25154;DHT22;47555;51.038;6.280;2022-12-24T15:43:46;10.20;99.90
25154;DHT22;47555;51.038;6.280;2022-12-24T15:46:26;10.20;99.90
25154;DHT22;47555;51.038;6.280;2022-12-24T15:48:53;10.20;99.90
25154;DHT22;47555;51.038;6.280;2022-12-24T15:51:30;10.10;99.90
25154;DHT22;47555;51.038;6.280;2022-12-24T15:54:00;10.10;99.90
25154;DHT22;47555;51.038;6.280;2022-12-24T15:56:37;10.00;99.90
25154;DHT22;47555;51.038;6.280;2022-12-24T16:01:41;9.90;99.90
25154;DHT22;47555;51.038;6.280;2022-12-24T16:04:12;9.80;99.90
25154;DHT22;47555;51.038;6.280;2022-12-24T16:09:30;9.70;99.90
25154;DHT22;47555;51.038;6.280;2022-12-24T16:11:56;9.60;99.90
25154;DHT22;47555;51.038;6.280;2022-12-24T16:14:22;9.60;99.90
25154;DHT22;47555;51.038;6.280;2022-12-24T16:16:49;9.50;99.90
25154;DHT22;47555;51.038;6.280;2022-12-24T16:19:24;9.50;99.90
25154;DHT22;47555;51.038;6.280;2022-12-24T16:21:55;9.40;99.90
25154;DHT22;47555;51.038;6.280;2022-12-24T16:24:27;9.30;99.90
25154;DHT22;47555;51.038;6.280;2022-12-24T16:26:54;9.30;99.90
25154;DHT22;47555;51.038;6.280;2022-12-24T16:29:19;9.20;99.90
25154;DHT22;47555;51.038;6.280;2022-12-24T16:31:52;9.10;99.90
25154;DHT22;47555;51.038;6.280;2022-12-24T16:34:21;9.10;99.90
25154;DHT22;47555;51.038;6.280;2022-12-24T16:36:47;9.00;99.90
25154;DHT22;47555;51.038;6.280;2022-12-24T16:39:38;8.90;99.90
25154;DHT22;47555;51.038;6.280;2022-12-24T16:42:04;8.90;99.90
25154;DHT22;47555;51.038;6.280;2022-12-24T16:44:51;8.80;99.90
25154;DHT22;47555;51.038;6.280;2022-12-24T16:47:24;8.70;99.90
25154;DHT22;47555;51.038;6.280;2022-12-24T16:49:50;8.60;99.90
25154;DHT22;47555;51.038;6.280;2022-12-24T16:52:21;8.50;99.90
25154;DHT22;47555;51.038;6.280;2022-12-24T16:54:48;8.40;99.90
25154;DHT22;47555;51.038;6.280;2022-12-24T16:57:14;8.40;99.90
25154;DHT22;47555;51.038;6.280;2022-12-24T16:59:40;8.30;99.90
25154;DHT22;47555;51.038;6.280;2022-12-24T17:02:06;8.30;99.90
25154;DHT22;47555;51.038;6.280;2022-12-24T17:04:34;8.20;99.90
25154;DHT22;47555;51.038;6.280;2022-12-24T17:07:00;8.20;99.90
25154;DHT22;47555;51.038;6.280;2022-12-24T17:09:25;8.20;99.90
25154;DHT22;47555;51.038;6.280;2022-12-24T17:11:51;8.20;99.90
25154;DHT22;47555;51.038;6.280;2022-12-24T17:14:17;8.10;99.90
25154;DHT22;47555;51.038;6.280;2022-12-24T17:16:42;8.10;99.90
25154;DHT22;47555;51.038;6.280;2022-12-24T17:19:08;8.10;99.90
25154;DHT22;47555;51.038;6.280;2022-12-24T17:21:34;8.00;99.90
25154;DHT22;47555;51.038;6.280;2022-12-24T17:24:00;7.90;99.90
25154;DHT22;47555;51.038;6.280;2022-12-24T17:26:26;8.00;99.90
25154;DHT22;47555;51.038;6.280;2022-12-24T17:28:53;7.90;99.90
25154;DHT22;47555;51.038;6.280;2022-12-24T17:31:19;7.90;99.90
25154;DHT22;47555;51.038;6.280;2022-12-24T17:33:47;7.80;99.90
25154;DHT22;47555;51.038;6.280;2022-12-24T17:36:13;7.80;99.90
25154;DHT22;47555;51.038;6.280;2022-12-24T17:38:39;7.70;99.90
25154;DHT22;47555;51.038;6.280;2022-12-24T17:41:07;7.70;99.90
25154;DHT22;47555;51.038;6.280;2022-12-24T17:43:34;7.60;99.90
25154;DHT22;47555;51.038;6.280;2022-12-24T17:46:18;7.60;99.90
25154;DHT22;47555;51.038;6.280;2022-12-24T17:48:45;7.50;99.90